Flight Track Log - Related Links

Times and Time Zones

All times are in EDT time to prevent confusion due to time zone crossing. See the AAL2345 flight status page for this flight to view local times or setup timezone preferences in your user account.

Time Position Orientation Groundspeed Altitude Reporting Facility
EDT Latitude Longitude Course Direction KTS MPH feet Rate Location/Type
Wed 06:58:25 PM 41.9667 -87.8167 200° South 226 260 3,400  Level Chicago TRACON
Wed 06:59:51 PM 41.8681 -87.7844 166° South 284 327 6,500 2,473 Climbing Chicago Center
Wed 07:00:53 PM 41.7897 -87.8058 192° South 290 334 9,500 2,855 Climbing Chicago Center
Wed 07:01:55 PM 41.7056 -87.8764 212° Southwest 306 352 12,400 2,661 Climbing Chicago Center
Wed 07:02:57 PM 41.6397 -87.9500 220° Southwest 310 357 15,000 2,081 Climbing Chicago Center
Wed 07:03:00 PM 41.8997 -88.0039 200° South  Level Estimated
Wed 07:03:59 PM 41.5661 -88.0206 216° Southwest 325 374 16,700  Level Chicago Center
Wed 07:05:01 PM 41.4861 -88.1000 217° Southwest 362 417 18,200 1,887 Climbing Chicago Center
Wed 07:06:03 PM 41.3794 -88.1928 213° Southwest 404 465 20,600 2,177 Climbing Chicago Center
Wed 07:07:05 PM 41.2744 -88.2392 198° South 407 468 22,700 1,742 Climbing Chicago Center
Wed 07:08:07 PM 41.1661 -88.2878 199° South 413 475 24,200 1,463 Climbing Chicago Center
Wed 07:09:08 PM 41.0533 -88.3394 199° South 428 493 25,700 1,366 Climbing Chicago Center
Wed 07:10:10 PM 40.9381 -88.3892 198° South 437 503 27,000 1,355 Climbing Chicago Center
Wed 07:11:12 PM 40.7956 -88.4569 200° South 455 524 28,500 1,306 Climbing Chicago Center
Wed 07:12:14 PM 40.6992 -88.5553 218° Southwest 446 513 29,700 1,403 Climbing Chicago Center
Wed 07:13:16 PM 40.5986 -88.6436 214° Southwest 437 503 31,400 1,113 Climbing Chicago Center
Wed 07:14:18 PM 40.5000 -88.7286 213° Southwest 430 495 32,000 968 Climbing Chicago Center
Wed 07:15:20 PM 40.4075 -88.8061 213° Southwest 420 483 33,400 968 Climbing Chicago Center
Wed 07:16:22 PM 40.2981 -88.9022 214° Southwest 399 459 34,000 290 Climbing Chicago Center
Wed 07:17:24 PM 40.2044 -88.9822 213° Southwest 400 460 34,000  Level Chicago Center
Wed 07:18:26 PM 40.1106 -89.0639 214° Southwest 404 465 34,000  Level Chicago Center
Wed 07:19:23 PM 40.0164 -89.1425 213° Southwest 402 463 34,000  Level Kansas City Center
Wed 07:20:25 PM 39.9225 -89.2228 213° Southwest 403 464 34,000  Level Kansas City Center
Wed 07:21:27 PM 39.8272 -89.3031 213° Southwest 404 465 34,000  Level Kansas City Center
Wed 07:22:28 PM 39.7325 -89.3836 213° Southwest 405 466 34,000  Level Kansas City Center
Wed 07:23:30 PM 39.6356 -89.4656 213° Southwest 408 470 34,000  Level Kansas City Center
Wed 07:24:32 PM 39.5397 -89.5481 214° Southwest 411 473 34,000  Level Kansas City Center
Wed 07:25:34 PM 39.4439 -89.6267 212° Southwest 410 472 34,000  Level Kansas City Center
Wed 07:26:35 PM 39.3483 -89.7103 214° Southwest 412 474 34,000  Level Kansas City Center
Wed 07:27:37 PM 39.2339 -89.8058 213° Southwest 411 473 34,000  Level Kansas City Center
Wed 07:28:39 PM 39.1339 -89.8886 213° Southwest 414 476 34,000  Level Kansas City Center
Wed 07:29:41 PM 39.0361 -89.9844 217° Southwest 415 478 34,000  Level Kansas City Center
Wed 07:30:42 PM 38.9750 -90.0878 233° Southwest 409 471 34,000  Level Kansas City Center
Wed 07:31:44 PM 38.9061 -90.1992 232° Southwest 407 468 34,000  Level Kansas City Center
Wed 07:32:46 PM 38.8197 -90.3361 231° Southwest 409 471 34,000  Level Kansas City Center
Wed 07:33:48 PM 38.7450 -90.4517 230° Southwest 414 476 34,000  Level Kansas City Center
Wed 07:34:50 PM 38.6761 -90.5742 234° Southwest 440 506 34,000  Level Kansas City Center
Wed 07:35:51 PM 38.6242 -90.6986 242° Southwest 434 499 34,000  Level Kansas City Center
Wed 07:36:53 PM 38.5731 -90.8267 243° Southwest 432 497 34,000  Level Kansas City Center
Wed 07:37:55 PM 38.5111 -90.9833 243° Southwest 415 478 34,000  Level Kansas City Center
Wed 07:38:57 PM 38.4589 -91.1147 243° Southwest 423 487 34,000  Level Kansas City Center
Wed 07:39:58 PM 38.4061 -91.2467 243° Southwest 423 487 34,000  Level Kansas City Center
Wed 07:41:00 PM 38.3475 -91.3917 243° Southwest 424 488 34,000  Level Kansas City Center
Wed 07:42:02 PM 38.2919 -91.5228 242° Southwest 422 486 34,000  Level Kansas City Center
Wed 07:43:04 PM 38.2164 -91.6375 230° Southwest 423 487 34,000  Level Kansas City Center
Wed 07:44:05 PM 38.1353 -91.7494 227° Southwest 424 488 34,000  Level Kansas City Center
Wed 07:45:07 PM 38.0508 -91.8547 224° Southwest 423 487 34,000  Level Kansas City Center
Wed 07:46:09 PM 37.9686 -91.9628 226° Southwest 423 487 34,000  Level Kansas City Center
Wed 07:47:10 PM 37.8775 -92.0833 226° Southwest 431 496 34,000  Level Kansas City Center
Wed 07:48:12 PM 37.7936 -92.1897 225° Southwest 431 496 34,000  Level Kansas City Center
Wed 07:49:14 PM 37.7081 -92.2978 225° Southwest 434 499 34,000  Level Kansas City Center
Wed 07:50:15 PM 37.6247 -92.4067 226° Southwest 434 499 34,000  Level Kansas City Center
Wed 07:51:17 PM 37.5411 -92.5133 225° Southwest 430 495 34,000  Level Kansas City Center
Wed 07:52:19 PM 37.4400 -92.6422 225° Southwest 428 493 34,000  Level Kansas City Center
Wed 07:53:20 PM 37.3558 -92.7486 225° Southwest 428 493 34,000  Level Kansas City Center
Wed 07:54:22 PM 37.2703 -92.8547 225° Southwest 429 494 34,000  Level Kansas City Center
Wed 07:55:24 PM 37.1861 -92.9600 225° Southwest 428 493 34,000  Level Kansas City Center
Wed 07:56:25 PM 37.1000 -93.0669 225° Southwest 431 496 34,000  Level Kansas City Center
Wed 07:57:27 PM 37.0142 -93.1761 225° Southwest 436 502 34,000  Level Kansas City Center
Wed 07:58:29 PM 36.9275 -93.2817 224° Southwest 435 501 34,000  Level Kansas City Center
Wed 07:59:30 PM 36.8406 -93.3917 225° Southwest 436 502 34,000  Level Kansas City Center
Wed 08:00:32 PM 36.7553 -93.4994 225° Southwest 437 503 34,000  Level Kansas City Center
Wed 08:01:34 PM 36.6689 -93.6047 224° Southwest 437 503 34,000  Level Kansas City Center
Wed 08:02:35 PM 36.5653 -93.7314 224° Southwest 437 503 34,000  Level Kansas City Center
Wed 08:03:37 PM 36.4783 -93.8383 225° Southwest 437 503 34,000  Level Kansas City Center
Wed 08:04:38 PM 36.3922 -93.9439 225° Southwest 435 501 34,000  Level Kansas City Center
Wed 08:05:26 PM 36.3192 -94.0378 226° Southwest 444 511 34,000  Level Memphis Center
Wed 08:06:26 PM 36.2286 -94.1392 222° Southwest 444 511 34,000  Level Memphis Center
Wed 08:07:26 PM 36.1217 -94.2242 213° Southwest 450 518 34,000  Level Memphis Center
Wed 08:08:27 PM 36.0211 -94.3042 213° Southwest 450 518 34,000  Level Memphis Center
Wed 08:09:26 PM 35.9142 -94.3911 213° Southwest 455 524 34,000  Level Memphis Center
Wed 08:10:26 PM 35.8092 -94.4731 212° Southwest 455 524 34,000  Level Memphis Center
Wed 08:11:26 PM 35.7064 -94.5575 214° Southwest 450 518 34,000  Level Memphis Center
Wed 08:13:53 PM 35.4492 -94.7608 213° Southwest 440 506 34,000  Level Fort Worth Center
Wed 08:14:53 PM 35.3403 -94.8458 212° Southwest 456 525 34,000  Level Fort Worth Center
Wed 08:15:53 PM 35.2336 -94.9303 213° Southwest 470 541 34,000  Level Fort Worth Center
Wed 08:16:53 PM 35.1289 -95.0122 213° Southwest 470 541 34,000  Level Fort Worth Center
Wed 08:17:53 PM 35.0219 -95.1014 214° Southwest 470 541 34,000  Level Fort Worth Center
Wed 08:18:53 PM 34.9175 -95.1981 217° Southwest 478 550 34,000  Level Fort Worth Center
Wed 08:19:53 PM 34.8208 -95.2889 218° Southwest 473 544 34,000  Level Fort Worth Center
Wed 08:20:53 PM 34.7203 -95.3850 218° Southwest 468 539 34,000  Level Fort Worth Center
Wed 08:21:53 PM 34.6239 -95.4881 221° Southwest 468 539 34,000 -300 Level Fort Worth Center
Wed 08:22:53 PM 34.5125 -95.5789 214° Southwest 473 544 33,400 -850 Descending Fort Worth Center
Wed 08:23:53 PM 34.4033 -95.6617 212° Southwest 468 539 32,300 300 Descending Fort Worth Center
Wed 08:24:53 PM 34.2894 -95.7394 209° Southwest 473 544 34,000 -2,000 Climbing Fort Worth Center
Wed 08:25:53 PM 34.1736 -95.8169 209° Southwest 478 550 28,300 -3,900 Descending Fort Worth Center
Wed 08:26:53 PM 34.0825 -95.8789 209° Southwest 451 519 26,200 -2,100 Descending Fort Worth Center
Wed 08:27:53 PM 33.9686 -95.9483 207° Southwest 434 499 24,100 -2,050 Descending Fort Worth Center
Wed 08:28:53 PM 33.8692 -96.0125 208° Southwest 416 479 22,100 -2,150 Descending Fort Worth Center
Wed 08:29:53 PM 33.7803 -96.0764 211° Southwest 404 465 19,800 -2,300 Descending Fort Worth Center
Wed 08:30:53 PM 33.6764 -96.1431 208° Southwest 404 465 17,500 -1,950 Descending Fort Worth Center
Wed 08:31:53 PM 33.5936 -96.1967 208° Southwest 394 453 15,900 -2,050 Descending Fort Worth Center
Wed 08:32:53 PM 33.5025 -96.2775 217° Southwest 383 441 13,400 -2,250 Descending Fort Worth Center
Wed 08:33:53 PM 33.4364 -96.3581 225° Southwest 378 435 11,400 -1,250 Descending Fort Worth Center
Wed 08:34:53 PM 33.3639 -96.4408 224° Southwest 345 397 10,900 -780 Descending Fort Worth Center
Wed 08:35:33 PM 33.3333 -96.4833 229° Southwest 294 338 10,100 -1,340 Descending Dallas / Fort Worth TRACON
Wed 08:36:27 PM 33.2667 -96.5500 220° Southwest 292 336 8,800 -1,474 Descending Dallas / Fort Worth TRACON
Wed 08:37:27 PM 33.2167 -96.6167 228° Southwest 284 327 7,300 -1,700 Descending Dallas / Fort Worth TRACON
Wed 08:38:27 PM 33.1833 -96.7000 244° Southwest 266 306 5,400 -1,150 Descending Dallas / Fort Worth TRACON
Wed 08:39:27 PM 33.1500 -96.7833 244° Southwest 269 310 5,000 -450 Descending Dallas / Fort Worth TRACON
Wed 08:40:27 PM 33.1167 -96.8500 239° Southwest 272 313 4,500 -952 Descending Dallas / Fort Worth TRACON
Wed 08:41:33 PM 33.0667 -96.9500 239° Southwest 268 308 3,000 -1,364 Descending Dallas / Fort Worth TRACON

Login

Don't have an account? Register now (free) for customized features, flight alerts, and more!